Terminal Aerodrome Forecast
Issued by NWS Portland, OR

Home | Current Version | Previous Version | Text Only | Print | Product List | Glossary On
Versions: 1 2 3 4 5 6 7 8 9 10 11 12 13 14 15 16 17 18 19 20 21 22 23 24 25 26 27 28 29 30 31 32 33
000
FTUS46 KPQR 211143
TAFEUG
TAF
KEUG 211143Z 2112/2212 22006KT P6SM SCT250
     FM211500 22006KT P6SM OVC019
     FM211900 27009KT P6SM BKN025 OVC035
     FM220000 36015G22KT P6SM OVC025
     FM220400 36011KT P6SM OVC050=

USA.gov is the U.S. government's official web portal to all federal, state and local government web resources and services.